Kinsman, Illinois
Current Conditions -  °F | °C
As of 2:35 PM on Saturday 25 Oct 2014 (Local Time) from KC09 Reporting Station
Clear Clear  
Wind Chill: 74°   Ceiling: Unl
Heat Index: 74°   Visibility: 10mi
Dew Point: 39°   Wind: 14mph
Humidity: 28%   Direction: 300°WNW
Pressure: 29.94"   Gusts: 23mph
Location:  41.19°N, 88.57°W
Report Text: KC09 251935Z AUTO 30012G20KT 10SM CLR 24/04 A2994 RMK AO2 T02360041
Loading
Personal Weather Stations






























Interactive Weather Map
Tropical Storm Tracking
New forecast layout! Learn more

10-Day Weather Forecast

Advertisements
Track Severe Weather on mobile